Time;durP1;ratioP1;P1;durP2;ratioP2;P2;SDS_P1;SDS_P2;PMS_P1;PMS_P2;Temp;Humidity;BMP_temperature;BMP_pressure;BME280_temperature;BME280_humidity;BME280_pressure;Samples;Min_cycle;Max_cycle;Signal;HPM_P1;HPM_P2
2023/10/25 00:02:24;;;;;;;1999.90;999.90;;;10.50;99.90;;;;;;5095030;28;20202;-67
2023/10/25 00:04:54;;;;;;;1999.90;999.90;;;10.50;99.90;;;;;;5097815;28;20191;-67
2023/10/25 00:07:20;;;;;;;1999.90;999.90;;;10.50;99.90;;;;;;5098361;28;20181;-67
2023/10/25 00:09:46;;;;;;;1999.90;999.90;;;10.50;99.90;;;;;;5112354;28;20416;-67
2023/10/25 00:12:11;;;;;;;1999.90;999.90;;;10.50;99.90;;;;;;5120530;28;20190;-67
2023/10/25 00:14:37;;;;;;;1999.90;999.90;;;10.40;99.90;;;;;;5121293;28;20197;-68
2023/10/25 00:17:04;;;;;;;1999.90;999.90;;;10.30;99.90;;;;;;5120931;28;20193;-67
2023/10/25 00:19:29;;;;;;;1999.90;999.90;;;10.30;99.90;;;;;;5120464;28;20432;-67
2023/10/25 00:21:55;;;;;;;1999.90;999.90;;;10.00;99.90;;;;;;5121407;28;20226;-68
2023/10/25 00:24:20;;;;;;;1999.90;999.90;;;10.30;99.90;;;;;;5120851;28;20179;-69
2023/10/25 00:26:46;;;;;;;1999.90;999.90;;;10.10;99.90;;;;;;5121039;28;20206;-67
2023/10/25 00:29:11;;;;;;;1999.90;999.90;;;10.10;99.90;;;;;;5111528;28;20259;-67
2023/10/25 00:31:37;;;;;;;1999.90;999.90;;;9.90;99.90;;;;;;5112611;28;20180;-67
2023/10/25 00:34:03;;;;;;;1999.90;999.90;;;9.90;99.90;;;;;;5112557;28;20194;-66
2023/10/25 00:36:29;;;;;;;1999.90;999.90;;;9.90;99.90;;;;;;5112921;28;20179;-67
2023/10/25 00:38:55;;;;;;;1999.90;999.90;;;9.90;99.90;;;;;;5112817;28;20750;-66
2023/10/25 00:41:20;;;;;;;1999.90;999.90;;;9.90;99.90;;;;;;5112557;28;20463;-67
2023/10/25 00:43:46;;;;;;;1999.90;999.90;;;9.90;99.90;;;;;;5112809;28;20688;-67
2023/10/25 00:46:14;;;;;;;1999.90;999.90;;;9.90;99.90;;;;;;5112780;28;20231;-67
2023/10/25 00:48:44;;;;;;;1999.90;999.90;;;9.90;99.90;;;;;;5112633;28;20218;-67
2023/10/25 00:51:11;;;;;;;1999.90;999.90;;;9.90;99.90;;;;;;5112490;28;20413;-67
2023/10/25 00:53:47;;;;;;;1999.90;999.90;;;9.80;99.90;;;;;;5112323;28;20466;-67
2023/10/25 00:56:15;;;;;;;1999.90;999.90;;;9.70;99.90;;;;;;5112416;28;20427;-67
2023/10/25 00:58:45;;;;;;;1999.90;999.90;;;9.70;99.90;;;;;;5112487;28;20401;-67
2023/10/25 01:01:12;;;;;;;1999.90;999.90;;;9.70;99.90;;;;;;5112165;28;20407;-67
2023/10/25 01:03:38;;;;;;;1999.90;999.90;;;9.70;99.90;;;;;;5112411;28;20482;-67
2023/10/25 01:06:04;;;;;;;1999.90;999.90;;;9.70;99.90;;;;;;5112378;28;20983;-67
2023/10/25 01:08:30;;;;;;;1999.90;999.90;;;9.70;99.90;;;;;;5112686;28;20183;-67
2023/10/25 01:10:55;;;;;;;1999.90;999.90;;;9.70;99.90;;;;;;5112227;28;20217;-67
2023/10/25 01:13:24;;;;;;;1999.90;999.90;;;9.70;99.90;;;;;;5110700;28;20529;-67
2023/10/25 01:15:49;;;;;;;1999.90;999.90;;;9.70;99.90;;;;;;5112426;28;20683;-67
2023/10/25 01:18:15;;;;;;;1999.90;999.90;;;9.70;99.90;;;;;;5112165;28;20393;-67
2023/10/25 01:20:42;;;;;;;1999.90;999.90;;;9.70;99.90;;;;;;5112192;28;20176;-67
2023/10/25 01:23:08;;;;;;;1999.90;999.90;;;9.70;99.90;;;;;;5112174;28;20425;-67
2023/10/25 01:25:34;;;;;;;1999.90;999.90;;;9.70;99.90;;;;;;5112471;28;20414;-67
2023/10/25 01:28:00;;;;;;;1999.90;999.90;;;9.70;99.90;;;;;;5112256;28;20177;-67
2023/10/25 01:30:26;;;;;;;1999.90;999.90;;;9.70;99.90;;;;;;5111891;28;20493;-67
2023/10/25 01:32:53;;;;;;;1999.90;999.90;;;9.70;99.90;;;;;;5112181;28;20877;-67
2023/10/25 01:35:18;;;;;;;1999.90;999.90;;;9.70;99.90;;;;;;5112269;28;20211;-67
2023/10/25 01:37:44;;;;;;;1999.90;999.90;;;9.60;99.90;;;;;;5112314;28;20402;-67
2023/10/25 01:40:10;;;;;;;1999.90;999.90;;;9.70;99.90;;;;;;5112950;28;20682;-67
2023/10/25 01:42:36;;;;;;;1999.90;999.90;;;9.70;99.90;;;;;;5115863;28;20671;-67
2023/10/25 01:45:02;;;;;;;1999.90;999.90;;;9.80;99.90;;;;;;5116110;28;20452;-67
2023/10/25 01:47:28;;;;;;;1999.90;999.90;;;9.80;99.90;;;;;;5115760;28;20245;-67
2023/10/25 01:49:53;;;;;;;1999.90;999.90;;;9.70;99.90;;;;;;5115811;28;20248;-67
2023/10/25 01:52:19;;;;;;;1999.90;999.90;;;9.80;99.90;;;;;;5115756;28;20433;-67
2023/10/25 01:54:46;;;;;;;1999.90;999.90;;;9.80;99.90;;;;;;5115686;28;20895;-67
2023/10/25 01:57:12;;;;;;;1999.90;999.90;;;9.70;99.90;;;;;;5122856;28;20206;-68
2023/10/25 01:59:37;;;;;;;1999.90;999.90;;;9.60;99.90;;;;;;5125114;28;20413;-67
2023/10/25 02:02:03;;;;;;;1999.90;999.90;;;9.20;99.90;;;;;;5125113;28;20492;-67
2023/10/25 02:04:29;;;;;;;1999.90;999.90;;;9.40;99.90;;;;;;5124983;28;20291;-67
2023/10/25 02:06:55;;;;;;;1999.90;999.90;;;9.40;99.90;;;;;;5124635;28;20446;-68
2023/10/25 02:09:21;;;;;;;1999.90;999.90;;;9.40;99.90;;;;;;5124604;28;20177;-67
2023/10/25 02:11:47;;;;;;;1999.90;999.90;;;9.40;99.90;;;;;;5125187;28;20413;-68
2023/10/25 02:14:13;;;;;;;1999.90;999.90;;;9.40;99.90;;;;;;5125043;28;20785;-68
2023/10/25 02:16:38;;;;;;;1999.90;999.90;;;9.40;99.90;;;;;;5124825;28;20438;-68
2023/10/25 02:19:04;;;;;;;1999.90;999.90;;;9.40;99.90;;;;;;5124735;28;20178;-66
2023/10/25 02:21:34;;;;;;;1999.90;999.90;;;9.50;99.90;;;;;;5124822;28;20171;-67
2023/10/25 02:24:00;;;;;;;1999.90;999.90;;;9.50;99.90;;;;;;5124634;28;20208;-67
2023/10/25 02:26:27;;;;;;;1999.90;999.90;;;9.50;99.90;;;;;;5115462;28;20416;-67
2023/10/25 02:28:53;;;;;;;1999.90;999.90;;;9.50;99.90;;;;;;5114951;28;20404;-67
2023/10/25 02:31:18;;;;;;;1999.90;999.90;;;9.60;99.90;;;;;;5114979;28;20463;-67
2023/10/25 02:33:44;;;;;;;1999.90;999.90;;;9.50;99.90;;;;;;5114889;28;20454;-67
2023/10/25 02:36:10;;;;;;;1999.90;999.90;;;9.50;99.90;;;;;;5114988;28;20164;-67
2023/10/25 02:38:35;;;;;;;1999.90;999.90;;;9.40;99.90;;;;;;5115046;28;20180;-67
2023/10/25 02:41:01;;;;;;;1999.90;999.90;;;9.60;99.90;;;;;;5114728;28;20177;-66
2023/10/25 02:43:27;;;;;;;1999.90;999.90;;;9.50;99.90;;;;;;5114756;28;20269;-67
2023/10/25 02:45:53;;;;;;;1999.90;999.90;;;9.40;99.90;;;;;;5115216;28;20997;-67
2023/10/25 02:48:18;;;;;;;1999.90;999.90;;;9.40;99.90;;;;;;5114822;28;20535;-67
2023/10/25 02:50:44;;;;;;;1999.90;999.90;;;9.50;99.90;;;;;;5114364;28;20163;-67
2023/10/25 02:53:09;;;;;;;1999.90;999.90;;;9.50;99.90;;;;;;5113751;28;20200;-67
2023/10/25 02:55:35;;;;;;;1999.90;999.90;;;9.50;99.90;;;;;;5114712;28;20202;-67
2023/10/25 02:58:01;;;;;;;1999.90;999.90;;;9.50;99.90;;;;;;5114447;28;20224;-67
2023/10/25 03:00:27;;;;;;;1999.90;999.90;;;9.40;99.90;;;;;;5114053;28;20157;-67
2023/10/25 03:02:53;;;;;;;1999.90;999.90;;;9.40;99.90;;;;;;5114136;28;20478;-67
2023/10/25 03:05:18;;;;;;;1999.90;999.90;;;9.40;99.90;;;;;;5114208;28;20171;-67
2023/10/25 03:07:44;;;;;;;1999.90;999.90;;;9.30;99.90;;;;;;5114668;28;20171;-67
2023/10/25 03:10:10;;;;;;;1999.90;999.90;;;9.30;99.90;;;;;;5113793;28;20216;-67
2023/10/25 03:12:35;;;;;;;1999.90;999.90;;;9.30;99.90;;;;;;5113907;28;20189;-67
2023/10/25 03:15:01;;;;;;;1999.90;999.90;;;9.30;99.90;;;;;;5114151;28;20637;-67
2023/10/25 03:17:28;;;;;;;1999.90;999.90;;;9.30;99.90;;;;;;5113941;28;20176;-67
2023/10/25 03:19:53;;;;;;;1999.90;999.90;;;9.30;99.90;;;;;;5113829;28;20263;-68
2023/10/25 03:22:19;;;;;;;1999.90;999.90;;;9.20;99.90;;;;;;5113829;28;20635;-67
2023/10/25 03:24:45;;;;;;;1999.90;999.90;;;9.20;99.90;;;;;;5113867;28;20403;-67
2023/10/25 03:27:10;;;;;;;1999.90;999.90;;;9.20;99.90;;;;;;5100287;28;20199;-67
2023/10/25 03:29:36;;;;;;;1999.90;999.90;;;9.20;99.90;;;;;;5090642;28;20187;-67
2023/10/25 03:32:03;;;;;;;1999.90;999.90;;;9.30;99.90;;;;;;5093181;28;20231;-67
2023/10/25 03:34:28;;;;;;;1999.90;999.90;;;9.20;99.90;;;;;;5093188;28;20474;-67
2023/10/25 03:36:54;;;;;;;1999.90;999.90;;;9.20;99.90;;;;;;5093099;28;20409;-67
2023/10/25 03:39:20;;;;;;;1999.90;999.90;;;9.30;99.90;;;;;;5093055;28;20401;-67
2023/10/25 03:41:46;;;;;;;1999.90;999.90;;;9.30;99.90;;;;;;5092588;28;20411;-67
2023/10/25 03:44:12;;;;;;;1999.90;999.90;;;9.40;99.90;;;;;;5092898;28;20182;-67
2023/10/25 03:46:38;;;;;;;1999.90;999.90;;;9.40;99.90;;;;;;5092841;28;20233;-67
2023/10/25 03:49:04;;;;;;;1999.90;999.90;;;9.50;99.90;;;;;;5092951;28;20423;-67
2023/10/25 03:51:30;;;;;;;1999.90;999.90;;;9.40;99.90;;;;;;5092516;28;20427;-67
2023/10/25 03:53:56;;;;;;;1999.90;999.90;;;9.40;99.90;;;;;;5084306;28;20473;-67
2023/10/25 03:56:22;;;;;;;1999.90;999.90;;;9.40;99.90;;;;;;5092571;28;20417;-67
2023/10/25 03:58:48;;;;;;;1999.90;999.90;;;9.50;99.90;;;;;;5092419;28;20175;-67
2023/10/25 04:01:13;;;;;;;1999.90;999.90;;;9.40;99.90;;;;;;5092510;28;20414;-66
2023/10/25 04:03:39;;;;;;;1999.90;999.90;;;9.50;99.90;;;;;;5092121;28;20254;-67
2023/10/25 04:06:08;;;;;;;1999.90;999.90;;;9.50;99.90;;;;;;5092581;28;20514;-67
2023/10/25 04:08:35;;;;;;;1999.90;999.90;;;9.50;99.90;;;;;;5092310;28;20681;-67
2023/10/25 04:11:01;;;;;;;1999.90;999.90;;;9.50;99.90;;;;;;5092060;28;20445;-68
2023/10/25 04:13:27;;;;;;;1999.90;999.90;;;9.50;99.90;;;;;;5092454;28;20811;-67
2023/10/25 04:15:54;;;;;;;1999.90;999.90;;;9.60;99.90;;;;;;5092348;28;20412;-67
2023/10/25 04:18:21;;;;;;;1999.90;999.90;;;9.60;99.90;;;;;;5092348;28;20203;-67
2023/10/25 04:20:46;;;;;;;1999.90;999.90;;;9.50;99.90;;;;;;5092099;28;20422;-67
2023/10/25 04:23:12;;;;;;;1999.90;999.90;;;9.50;99.90;;;;;;5100510;28;20430;-67
2023/10/25 04:25:37;;;;;;;1999.90;999.90;;;9.60;99.90;;;;;;5092123;28;20187;-67
2023/10/25 04:28:03;;;;;;;1999.90;999.90;;;9.50;99.90;;;;;;5092120;28;20775;-67
2023/10/25 04:30:29;;;;;;;1999.90;999.90;;;9.50;99.90;;;;;;5092006;28;20183;-67
2023/10/25 04:32:54;;;;;;;1999.90;999.90;;;9.50;99.90;;;;;;5095297;28;20228;-67
2023/10/25 04:35:20;;;;;;;1999.90;999.90;;;9.50;99.90;;;;;;5097217;28;20287;-67
2023/10/25 04:37:45;;;;;;;1999.90;999.90;;;9.60;99.90;;;;;;5092004;28;20627;-67
2023/10/25 04:40:11;;;;;;;1999.90;999.90;;;9.40;99.90;;;;;;5091792;28;20181;-67
2023/10/25 04:42:37;;;;;;;1999.90;999.90;;;9.40;99.90;;;;;;5092151;28;20200;-67
2023/10/25 04:45:03;;;;;;;1999.90;999.90;;;9.40;99.90;;;;;;5092125;28;20506;-67
2023/10/25 04:47:28;;;;;;;1999.90;999.90;;;9.40;99.90;;;;;;5091886;28;20641;-67
2023/10/25 04:49:54;;;;;;;1999.90;999.90;;;9.30;99.90;;;;;;5091636;28;20520;-68
2023/10/25 04:52:19;;;;;;;1999.90;999.90;;;9.30;99.90;;;;;;5091913;28;20199;-68
2023/10/25 04:54:45;;;;;;;1999.90;999.90;;;9.30;99.90;;;;;;5091762;28;20197;-67
2023/10/25 04:57:11;;;;;;;1999.90;999.90;;;9.30;99.90;;;;;;5091711;28;20271;-67
2023/10/25 04:59:36;;;;;;;1999.90;999.90;;;9.30;99.90;;;;;;5091764;28;20551;-67
2023/10/25 05:02:02;;;;;;;1999.90;999.90;;;9.10;99.90;;;;;;5091501;28;20176;-67
2023/10/25 05:04:30;;;;;;;1999.90;999.90;;;9.20;99.90;;;;;;5091752;28;20187;-67
2023/10/25 05:06:56;;;;;;;1999.90;999.90;;;9.20;99.90;;;;;;5091697;28;20199;-67
2023/10/25 05:09:22;;;;;;;1999.90;999.90;;;9.20;99.90;;;;;;5091552;28;20417;-67
2023/10/25 05:11:58;;;;;;;1999.90;999.90;;;9.30;99.90;;;;;;5091263;28;20496;-67
2023/10/25 05:14:24;;;;;;;1999.90;999.90;;;9.10;99.90;;;;;;5091769;28;21025;-67
2023/10/25 05:16:50;;;;;;;1999.90;999.90;;;9.10;99.90;;;;;;5095624;28;20509;-67
2023/10/25 05:19:16;;;;;;;1999.90;999.90;;;9.10;99.90;;;;;;5101538;28;20412;-67
2023/10/25 05:21:43;;;;;;;1999.90;999.90;;;9.00;99.90;;;;;;5097859;28;20168;-67
2023/10/25 05:24:09;;;;;;;1999.90;999.90;;;9.10;99.90;;;;;;5095773;28;20468;-67
2023/10/25 05:26:35;;;;;;;1999.90;999.90;;;9.10;99.90;;;;;;5095459;28;20458;-67
2023/10/25 05:29:01;;;;;;;1999.90;999.90;;;9.10;99.90;;;;;;5095669;28;20409;-67
2023/10/25 05:31:27;;;;;;;1999.90;999.90;;;9.20;99.90;;;;;;5103732;28;20427;-67
2023/10/25 05:33:53;;;;;;;1999.90;999.90;;;9.20;99.90;;;;;;5103799;28;20465;-67
2023/10/25 05:36:19;;;;;;;1999.90;999.90;;;9.20;99.90;;;;;;5095488;28;20847;-67
2023/10/25 05:38:45;;;;;;;1999.90;999.90;;;9.20;99.90;;;;;;5095650;28;20434;-67
2023/10/25 05:41:15;;;;;;;1999.90;999.90;;;9.20;99.90;;;;;;5095358;28;20484;-67
2023/10/25 05:43:43;;;;;;;1999.90;999.90;;;9.30;99.90;;;;;;5095293;28;20430;-67
2023/10/25 05:46:08;;;;;;;1999.90;999.90;;;9.20;99.90;;;;;;5095450;28;20410;-67
2023/10/25 05:48:34;;;;;;;1999.90;999.90;;;9.30;99.90;;;;;;5095323;28;20790;-67
2023/10/25 05:51:06;;;;;;;1999.90;999.90;;;9.30;99.90;;;;;;5095024;28;20185;-67
2023/10/25 05:53:32;;;;;;;1999.90;999.90;;;9.30;99.90;;;;;;5095189;28;20421;-67
2023/10/25 05:55:58;;;;;;;1999.90;999.90;;;9.40;99.90;;;;;;5095194;28;20403;-66
2023/10/25 05:58:24;;;;;;;1999.90;999.90;;;9.40;99.90;;;;;;5095040;28;20414;-67
2023/10/25 06:00:52;;;;;;;1999.90;999.90;;;9.40;99.90;;;;;;5095123;28;20169;-66
2023/10/25 06:03:20;;;;;;;1999.90;999.90;;;9.40;99.90;;;;;;5095249;28;20964;-67
2023/10/25 06:05:51;;;;;;;1999.90;999.90;;;9.40;99.90;;;;;;5095580;28;20426;-67
2023/10/25 06:08:17;;;;;;;1999.90;999.90;;;9.50;99.90;;;;;;5095616;28;20415;-67
2023/10/25 06:10:43;;;;;;;1999.90;999.90;;;9.50;99.90;;;;;;5094793;28;20427;-67
2023/10/25 06:13:09;;;;;;;1999.90;999.90;;;9.50;99.90;;;;;;5095043;28;20526;-67
2023/10/25 06:15:36;;;;;;;1999.90;999.90;;;9.50;99.90;;;;;;5095090;28;20827;-67
2023/10/25 06:18:02;;;;;;;1999.90;999.90;;;9.50;99.90;;;;;;5094945;28;20480;-67
2023/10/25 06:20:28;;;;;;;1999.90;999.90;;;9.60;99.90;;;;;;5095108;28;20423;-67
2023/10/25 06:22:56;;;;;;;1999.90;999.90;;;9.60;99.90;;;;;;5095349;28;20794;-67
2023/10/25 06:25:22;;;;;;;1999.90;999.90;;;9.60;99.90;;;;;;5095135;28;20191;-68
2023/10/25 06:27:47;;;;;;;1999.90;999.90;;;9.60;99.90;;;;;;5086348;28;20424;-67
2023/10/25 06:30:13;;;;;;;1999.90;999.90;;;9.60;99.90;;;;;;5091217;28;20179;-67
2023/10/25 06:32:40;;;;;;;1999.90;999.90;;;9.70;99.90;;;;;;5094635;28;20786;-67
2023/10/25 06:35:06;;;;;;;1999.90;999.90;;;9.70;99.90;;;;;;5094857;28;20237;-67
2023/10/25 06:37:32;;;;;;;1999.90;999.90;;;9.70;99.90;;;;;;5094714;28;20418;-67
2023/10/25 06:39:58;;;;;;;1999.90;999.90;;;9.70;99.90;;;;;;5102858;28;20192;-67
2023/10/25 06:42:23;;;;;;;1999.90;999.90;;;9.70;99.90;;;;;;5094708;28;20452;-67
2023/10/25 06:44:50;;;;;;;1999.90;999.90;;;9.70;99.90;;;;;;5094647;28;20417;-67
2023/10/25 06:47:16;;;;;;;1999.90;999.90;;;9.70;99.90;;;;;;5094445;28;20415;-67
2023/10/25 06:49:42;;;;;;;1999.90;999.90;;;9.70;99.90;;;;;;5094348;28;20415;-68
2023/10/25 06:52:09;;;;;;;1999.90;999.90;;;9.80;99.90;;;;;;5094247;28;20857;-67
2023/10/25 06:54:35;;;;;;;1999.90;999.90;;;9.80;99.90;;;;;;5094051;28;20199;-67
2023/10/25 06:57:00;;;;;;;1999.90;999.90;;;9.90;99.90;;;;;;5094160;28;20895;-67
2023/10/25 06:59:27;;;;;;;1999.90;999.90;;;9.90;99.90;;;;;;5094361;28;20773;-67
2023/10/25 07:02:05;;;;;;;1999.90;999.90;;;10.20;99.90;;;;;;5093873;28;20826;-67
2023/10/25 07:04:33;;;;;;;1999.90;999.90;;;10.10;99.90;;;;;;5093917;28;20498;-67
2023/10/25 07:06:59;;;;;;;1999.90;999.90;;;10.20;99.90;;;;;;5101906;28;20426;-67
2023/10/25 07:09:25;;;;;;;1999.90;999.90;;;10.20;99.90;;;;;;5102134;28;20418;-68
2023/10/25 07:11:51;;;;;;;1999.90;999.90;;;10.20;99.90;;;;;;5101798;28;20457;-67
2023/10/25 07:14:16;;;;;;;1999.90;999.90;;;10.30;99.90;;;;;;5102213;28;20226;-68
2023/10/25 07:16:42;;;;;;;1999.90;999.90;;;10.20;99.90;;;;;;5101315;28;20173;-68
2023/10/25 07:19:07;;;;;;;1999.90;999.90;;;10.20;99.90;;;;;;5110552;28;20175;-67
2023/10/25 07:21:33;;;;;;;1999.90;999.90;;;10.20;99.90;;;;;;5102144;28;20238;-67
2023/10/25 07:23:59;;;;;;;1999.90;999.90;;;10.30;99.90;;;;;;5105008;28;20205;-68
2023/10/25 07:26:24;;;;;;;1999.90;999.90;;;10.30;99.90;;;;;;5107459;28;20557;-67
2023/10/25 07:28:50;;;;;;;1999.90;999.90;;;10.30;99.90;;;;;;5100999;28;20192;-67
2023/10/25 07:31:16;;;;;;;1999.90;999.90;;;10.30;99.90;;;;;;5101426;28;20280;-67
2023/10/25 07:33:42;;;;;;;1999.90;999.90;;;10.30;99.90;;;;;;5100950;28;20338;-67
2023/10/25 07:36:08;;;;;;;1999.90;999.90;;;10.40;99.90;;;;;;5109491;28;20818;-67
2023/10/25 07:38:33;;;;;;;1999.90;999.90;;;10.30;99.90;;;;;;5109771;28;20195;-67
2023/10/25 07:40:59;;;;;;;1999.90;999.90;;;10.40;99.90;;;;;;5122403;28;20415;-67
2023/10/25 07:43:25;;;;;;;1999.90;999.90;;;10.40;99.90;;;;;;5115473;28;20211;-68
2023/10/25 07:45:50;;;;;;;1999.90;999.90;;;10.40;99.90;;;;;;5114597;28;20257;-68
2023/10/25 07:48:16;;;;;;;1999.90;999.90;;;10.40;99.90;;;;;;5122039;28;20214;-68
2023/10/25 07:50:42;;;;;;;1999.90;999.90;;;10.50;99.90;;;;;;5121921;28;20203;-67
2023/10/25 07:53:08;;;;;;;1999.90;999.90;;;10.50;99.90;;;;;;5121422;28;20448;-68
2023/10/25 07:55:33;;;;;;;1999.90;999.90;;;10.60;99.90;;;;;;5123569;28;20201;-68
2023/10/25 07:57:59;;;;;;;1999.90;999.90;;;10.60;99.90;;;;;;5124524;28;20204;-68
2023/10/25 08:00:24;;;;;;;1999.90;999.90;;;10.70;99.90;;;;;;5123594;28;20221;-68
2023/10/25 08:02:50;;;;;;;1999.90;999.90;;;10.70;99.90;;;;;;5119151;28;20217;-68
2023/10/25 08:05:16;;;;;;;1999.90;999.90;;;10.80;99.90;;;;;;5115965;28;20520;-67
2023/10/25 08:07:42;;;;;;;1999.90;999.90;;;10.80;99.90;;;;;;5122151;28;20189;-67
2023/10/25 08:10:08;;;;;;;1999.90;999.90;;;10.80;99.90;;;;;;5121340;28;20185;-68
2023/10/25 08:12:34;;;;;;;1999.90;999.90;;;10.90;99.90;;;;;;5120490;28;20427;-67
2023/10/25 08:15:00;;;;;;;1999.90;999.90;;;10.90;99.90;;;;;;5120552;28;20443;-67
2023/10/25 08:17:26;;;;;;;1999.90;999.90;;;11.00;99.90;;;;;;5118957;28;20416;-67
2023/10/25 08:19:51;;;;;;;1999.90;999.90;;;11.00;99.90;;;;;;5112595;28;20180;-67
2023/10/25 08:22:17;;;;;;;1999.90;999.90;;;11.00;99.90;;;;;;5112750;28;20185;-67
2023/10/25 08:24:42;;;;;;;1999.90;999.90;;;11.00;99.90;;;;;;5117470;28;20177;-68
2023/10/25 08:27:08;;;;;;;1999.90;999.90;;;11.00;99.90;;;;;;5112429;28;20176;-68
2023/10/25 08:29:34;;;;;;;1999.90;999.90;;;11.10;99.90;;;;;;5120936;28;20178;-68
2023/10/25 08:31:59;;;;;;;1999.90;999.90;;;11.30;99.90;;;;;;5123309;28;20178;-68
2023/10/25 08:34:25;;;;;;;1999.90;999.90;;;11.10;99.90;;;;;;5122532;28;20197;-68
2023/10/25 08:36:52;;;;;;;1999.90;999.90;;;11.10;99.90;;;;;;5123179;28;20175;-66
2023/10/25 08:39:21;;;;;;;1999.90;999.90;;;11.10;99.90;;;;;;5121963;28;20168;-68
2023/10/25 08:41:47;;;;;;;1999.90;999.90;;;11.40;99.90;;;;;;5120629;28;20410;-68
2023/10/25 08:44:13;;;;;;;1999.90;999.90;;;11.20;99.90;;;;;;5110124;28;20869;-68
2023/10/25 08:46:40;;;;;;;1999.90;999.90;;;11.20;99.90;;;;;;5108311;28;20446;-68
2023/10/25 08:49:06;;;;;;;1999.90;999.90;;;11.10;99.90;;;;;;5103261;28;20192;-70
2023/10/25 08:51:32;;;;;;;1999.90;999.90;;;11.10;99.90;;;;;;5101129;28;20412;-69
2023/10/25 08:54:00;;;;;;;1999.90;999.90;;;11.20;99.90;;;;;;5107395;28;20250;-69
2023/10/25 08:56:26;;;;;;;1999.90;999.90;;;11.10;99.90;;;;;;5099839;28;20212;-70
2023/10/25 08:58:51;;;;;;;1999.90;999.90;;;11.20;99.90;;;;;;5100094;28;20478;-70
2023/10/25 09:01:18;;;;;;;1999.90;999.90;;;11.20;99.90;;;;;;5108147;28;20220;-69
2023/10/25 09:03:44;;;;;;;1999.90;999.90;;;11.10;99.90;;;;;;5112759;28;20230;-68
2023/10/25 09:06:11;;;;;;;1999.90;999.90;;;11.20;99.90;;;;;;5114364;28;20436;-69
2023/10/25 09:08:37;;;;;;;1999.90;999.90;;;11.20;99.90;;;;;;5110469;28;20914;-69
2023/10/25 09:11:10;;;;;;;1999.90;999.90;;;11.20;99.90;;;;;;5105236;28;20455;-68
2023/10/25 09:13:41;;;;;;;1999.90;999.90;;;11.30;99.90;;;;;;5114025;28;20490;-67
2023/10/25 09:16:11;;;;;;;1999.90;999.90;;;11.40;99.90;;;;;;5099484;28;20400;-70
2023/10/25 09:18:39;;;;;;;1999.90;999.90;;;11.40;99.90;;;;;;5097026;28;20422;-69
2023/10/25 09:21:05;;;;;;;1999.90;999.90;;;11.40;99.90;;;;;;5095622;28;20496;-68
2023/10/25 09:23:33;;;;;;;1999.90;999.90;;;11.40;99.90;;;;;;5095702;28;21019;-69
2023/10/25 09:26:00;;;;;;;1999.90;999.90;;;11.40;99.90;;;;;;5090775;28;20508;-70
2023/10/25 09:28:27;;;;;;;1999.90;999.90;;;11.40;99.90;;;;;;5089929;28;20419;-69
2023/10/25 09:30:58;;;;;;;1999.90;999.90;;;11.40;99.90;;;;;;5088394;28;20466;-70
2023/10/25 09:33:24;;;;;;;1999.90;999.90;;;11.40;99.90;;;;;;5098529;28;20432;-68
2023/10/25 09:35:51;;;;;;;1999.90;999.90;;;11.40;99.90;;;;;;5106601;28;20475;-72
2023/10/25 09:38:17;;;;;;;1999.90;999.90;;;11.50;99.90;;;;;;5117051;28;20441;-68
2023/10/25 09:40:45;;;;;;;1999.90;999.90;;;11.50;99.90;;;;;;5118081;28;21128;-69
2023/10/25 09:43:19;;;;;;;1999.90;999.90;;;11.50;99.90;;;;;;5113314;28;20510;-68
2023/10/25 09:45:52;;;;;;;1999.90;999.90;;;11.50;99.90;;;;;;5107284;28;20413;-69
2023/10/25 09:48:21;;;;;;;1999.90;999.90;;;11.60;99.90;;;;;;5107290;28;20462;-68
2023/10/25 09:51:06;;;;;;;1999.90;999.90;;;11.60;99.90;;;;;;5107856;28;20856;-69
2023/10/25 09:54:00;;;;;;;1999.90;999.90;;;11.60;99.90;;;;;;5107856;28;20430;-65
2023/10/25 09:56:27;;;;;;;1999.90;999.90;;;11.60;99.90;;;;;;5111465;28;20509;-68
2023/10/25 09:58:54;;;;;;;1999.90;999.90;;;11.70;99.90;;;;;;5117172;28;20797;-68
2023/10/25 10:01:19;;;;;;;1999.90;999.90;;;11.70;99.90;;;;;;5117912;28;20414;-67
2023/10/25 10:04:10;;;;;;;1999.90;999.90;;;11.70;99.90;;;;;;5120850;28;20427;-68
2023/10/25 10:06:53;;;;;;;1999.90;999.90;;;11.80;99.90;;;;;;5120074;28;20177;-67
2023/10/25 10:09:37;;;;;;;1999.90;999.90;;;11.90;99.90;;;;;;5122525;28;20467;-67
2023/10/25 10:12:08;;;;;;;1999.90;999.90;;;11.80;99.90;;;;;;5121804;28;20411;-67
2023/10/25 10:14:35;;;;;;;1999.90;999.90;;;11.80;99.90;;;;;;5119818;28;20943;-68
2023/10/25 10:17:06;;;;;;;1999.90;999.90;;;11.80;99.90;;;;;;5121997;28;20412;-66
2023/10/25 10:19:33;;;;;;;1999.90;999.90;;;11.80;99.90;;;;;;5121489;28;20415;-66
2023/10/25 10:22:09;;;;;;;1999.90;999.90;;;11.80;99.90;;;;;;5121453;28;20498;-67
2023/10/25 10:24:48;;;;;;;1999.90;999.90;;;11.80;99.90;;;;;;5122593;28;20409;-66
2023/10/25 10:27:18;;;;;;;1999.90;999.90;;;11.70;99.90;;;;;;5122779;28;20438;-68
2023/10/25 10:29:48;;;;;;;1999.90;999.90;;;11.70;99.90;;;;;;5119975;28;20464;-69
2023/10/25 10:32:14;;;;;;;1999.90;999.90;;;11.60;99.90;;;;;;5114464;28;20468;-70
2023/10/25 10:34:53;;;;;;;1999.90;999.90;;;11.60;99.90;;;;;;5115197;28;20462;-65
2023/10/25 10:37:31;;;;;;;1999.90;999.90;;;11.60;99.90;;;;;;5113081;28;20419;-67
2023/10/25 10:39:57;;;;;;;1999.90;999.90;;;11.60;99.90;;;;;;5110181;28;20477;-68
2023/10/25 10:42:28;;;;;;;1999.90;999.90;;;11.50;99.90;;;;;;5110696;28;20480;-70
2023/10/25 10:44:58;;;;;;;1999.90;999.90;;;11.50;99.90;;;;;;5110499;28;20186;-68
2023/10/25 10:47:31;;;;;;;1999.90;999.90;;;11.40;99.90;;;;;;5109980;28;20410;-69
2023/10/25 10:50:07;;;;;;;1999.90;999.90;;;11.40;99.90;;;;;;5109811;28;20778;-69
2023/10/25 10:52:33;;;;;;;1999.90;999.90;;;11.40;99.90;;;;;;5109884;28;20440;-66
2023/10/25 10:54:59;;;;;;;1999.90;999.90;;;11.30;99.90;;;;;;5110778;28;20483;-68
2023/10/25 10:57:25;;;;;;;1999.90;999.90;;;11.20;99.90;;;;;;5110272;28;20412;-69
2023/10/25 10:59:51;;;;;;;1999.90;999.90;;;11.10;99.90;;;;;;5110326;28;20175;-67
2023/10/25 11:02:17;;;;;;;1999.90;999.90;;;11.10;99.90;;;;;;5110732;28;20423;-69
2023/10/25 11:04:43;;;;;;;1999.90;999.90;;;11.10;99.90;;;;;;5110021;28;20571;-70
2023/10/25 11:07:09;;;;;;;1999.90;999.90;;;11.10;99.90;;;;;;5110582;28;20411;-70
2023/10/25 11:09:34;;;;;;;1999.90;999.90;;;11.10;99.90;;;;;;5110583;28;20253;-70
2023/10/25 11:12:08;;;;;;;1999.90;999.90;;;11.10;99.90;;;;;;5109437;28;20189;-69
2023/10/25 11:14:44;;;;;;;1999.90;999.90;;;11.00;99.90;;;;;;5109849;28;20579;-71
2023/10/25 11:17:10;;;;;;;1999.90;999.90;;;11.10;99.90;;;;;;5110243;28;20437;-70
2023/10/25 11:19:36;;;;;;;1999.90;999.90;;;11.00;99.90;;;;;;5110305;28;20492;-68
2023/10/25 11:22:01;;;;;;;1999.90;999.90;;;11.00;99.90;;;;;;5109069;28;20181;-67
2023/10/25 11:24:27;;;;;;;1999.90;999.90;;;11.00;99.90;;;;;;5110426;28;20181;-67
2023/10/25 11:26:53;;;;;;;1999.90;999.90;;;11.10;99.90;;;;;;5109787;28;20836;-68
2023/10/25 11:29:20;;;;;;;1999.90;999.90;;;11.10;99.90;;;;;;5109504;28;20181;-69
2023/10/25 11:31:49;;;;;;;1999.90;999.90;;;11.00;99.90;;;;;;5110125;28;20422;-69
2023/10/25 11:34:19;;;;;;;1999.90;999.90;;;11.00;99.90;;;;;;5109780;28;20458;-68
2023/10/25 11:36:49;;;;;;;1999.90;999.90;;;10.90;99.90;;;;;;5110370;28;20925;-68
2023/10/25 11:39:15;;;;;;;1999.90;999.90;;;11.00;99.90;;;;;;5109182;28;20415;-68
2023/10/25 11:41:42;;;;;;;1999.90;999.90;;;10.90;99.90;;;;;;5109635;28;20494;-67
2023/10/25 11:44:08;;;;;;;1999.90;999.90;;;10.90;99.90;;;;;;5108923;28;20623;-67
2023/10/25 11:46:42;;;;;;;1999.90;999.90;;;11.10;99.90;;;;;;5109384;28;20563;-68
2023/10/25 11:49:08;;;;;;;1999.90;999.90;;;11.00;99.90;;;;;;5109833;28;20483;-68
2023/10/25 11:51:35;;;;;;;1999.90;999.90;;;11.00;99.90;;;;;;5109292;28;21129;-67
2023/10/25 11:54:01;;;;;;;1999.90;999.90;;;11.00;99.90;;;;;;5108802;28;20212;-67
2023/10/25 11:56:27;;;;;;;1999.90;999.90;;;10.90;99.90;;;;;;5109765;28;20421;-67
2023/10/25 11:58:52;;;;;;;1999.90;999.90;;;11.10;99.90;;;;;;5109125;28;20406;-68
2023/10/25 12:01:19;;;;;;;1999.90;999.90;;;11.10;99.90;;;;;;5109854;28;20410;-67
2023/10/25 12:03:45;;;;;;;1999.90;999.90;;;11.10;99.90;;;;;;5109527;28;20245;-68